createdAt,value
2023-03-07T00:01:28.807Z,1.29
2023-03-07T00:03:55.657Z,1.24
2023-03-07T00:06:22.588Z,1.20
2023-03-07T00:08:53.972Z,1.14
2023-03-07T00:11:20.495Z,1.07
2023-03-07T00:13:50.218Z,1.02
2023-03-07T00:16:19.804Z,0.97
2023-03-07T00:18:46.677Z,0.93
2023-03-07T00:21:15.866Z,0.89
2023-03-07T00:23:44.279Z,0.91
2023-03-07T00:26:17.581Z,0.95
2023-03-07T00:28:47.662Z,1.00
2023-03-07T00:31:15.158Z,1.05
2023-03-07T00:33:42.431Z,1.09
2023-03-07T00:36:21.042Z,1.14
2023-03-07T00:38:48.666Z,1.17
2023-03-07T00:41:18.789Z,1.19
2023-03-07T00:43:46.661Z,1.19
2023-03-07T00:46:14.490Z,1.18
2023-03-07T00:48:41.514Z,1.14
2023-03-07T00:51:11.243Z,1.09
2023-03-07T00:53:39.112Z,1.04
2023-03-07T00:56:15.114Z,0.99
2023-03-07T00:58:42.072Z,0.93
2023-03-07T01:01:10.904Z,0.87
2023-03-07T01:03:37.375Z,0.82
2023-03-07T01:06:07.806Z,0.78
2023-03-07T01:08:35.588Z,0.74
2023-03-07T01:11:04.084Z,0.69
2023-03-07T01:13:32.088Z,0.65
2023-03-07T01:16:08.021Z,0.62
2023-03-07T01:18:34.517Z,0.60
2023-03-07T01:21:01.623Z,0.58
2023-03-07T01:23:28.657Z,0.57
2023-03-07T01:25:55.093Z,0.56
2023-03-07T01:28:21.558Z,0.53
2023-03-07T01:30:56.758Z,0.52
2023-03-07T01:33:23.582Z,0.51
2023-03-07T01:35:50.703Z,0.49
2023-03-07T01:38:17.250Z,0.46
2023-03-07T01:40:43.640Z,0.45
2023-03-07T01:43:33.188Z,0.43
2023-03-07T01:46:18.348Z,0.39
2023-03-07T01:48:50.247Z,0.35
2023-03-07T01:51:18.170Z,0.35
2023-03-07T01:53:46.265Z,0.34
2023-03-07T01:56:13.007Z,0.34
2023-03-07T01:58:40.396Z,0.36
2023-03-07T02:01:12.055Z,0.39
2023-03-07T02:03:47.564Z,0.42
2023-03-07T02:06:14.415Z,0.45
2023-03-07T02:08:43.487Z,0.48
2023-03-07T02:11:11.845Z,0.53
2023-03-07T02:13:39.099Z,0.58
2023-03-07T02:16:07.320Z,0.63
2023-03-07T02:18:42.009Z,0.68
2023-03-07T02:21:15.100Z,0.74
2023-03-07T02:23:48.275Z,0.79
2023-03-07T02:26:43.629Z,0.85
2023-03-07T02:29:11.391Z,0.90
2023-03-07T02:31:38.479Z,0.93
2023-03-07T02:34:21.148Z,0.96
2023-03-07T02:36:52.059Z,0.99
2023-03-07T02:39:20.921Z,1.03
2023-03-07T02:41:49.443Z,1.06
2023-03-07T02:44:16.283Z,1.10
2023-03-07T02:46:42.697Z,1.11
2023-03-07T02:49:09.153Z,1.10
2023-03-07T02:51:35.534Z,1.10
2023-03-07T02:54:01.933Z,1.09
2023-03-07T02:56:29.048Z,1.05
2023-03-07T02:58:56.725Z,0.99
2023-03-07T03:01:23.234Z,0.94
2023-03-07T03:03:49.819Z,0.88
2023-03-07T03:06:16.335Z,0.82
2023-03-07T03:08:42.751Z,0.76
2023-03-07T03:11:09.716Z,0.72
2023-03-07T03:13:38.681Z,0.68
2023-03-07T03:16:05.715Z,0.65
2023-03-07T03:18:32.428Z,0.61
2023-03-07T03:20:58.903Z,0.57
2023-03-07T03:23:28.449Z,0.53
2023-03-07T03:26:06.980Z,0.51
2023-03-07T03:28:35.475Z,0.46
2023-03-07T03:31:08.493Z,0.41
2023-03-07T03:33:35.933Z,0.38
2023-03-07T03:36:09.583Z,0.35
2023-03-07T03:38:36.638Z,0.35
2023-03-07T03:41:08.308Z,0.36
2023-03-07T03:43:36.727Z,0.36
2023-03-07T03:46:03.564Z,0.34
2023-03-07T03:48:31.076Z,0.34
2023-03-07T03:51:05.206Z,0.33
2023-03-07T03:53:33.816Z,0.33
2023-03-07T03:56:04.497Z,0.30
2023-03-07T03:58:33.132Z,0.31
2023-03-07T04:01:05.255Z,0.34
2023-03-07T04:03:36.446Z,0.40
2023-03-07T04:06:08.850Z,0.45
2023-03-07T04:08:37.669Z,0.53
2023-03-07T04:11:05.297Z,0.61
2023-03-07T04:13:33.541Z,0.68
2023-03-07T04:16:00.439Z,0.72
2023-03-07T04:18:27.090Z,0.76
2023-03-07T04:20:54.060Z,0.80
2023-03-07T04:23:22.329Z,0.84
2023-03-07T04:25:57.272Z,0.87
2023-03-07T04:28:26.933Z,0.89
2023-03-07T04:30:54.256Z,0.91
2023-03-07T04:33:20.733Z,0.93
2023-03-07T04:35:49.700Z,0.96
2023-03-07T04:38:16.669Z,0.99
2023-03-07T04:40:43.548Z,1.03
2023-03-07T04:43:11.415Z,1.06
2023-03-07T04:45:37.936Z,1.09
2023-03-07T04:48:04.621Z,1.12
2023-03-07T04:50:31.382Z,1.14
2023-03-07T04:52:58.201Z,1.13
2023-03-07T04:55:25.426Z,1.14
2023-03-07T04:57:52.053Z,1.15
2023-03-07T05:00:19.479Z,1.17
2023-03-07T05:02:47.985Z,1.19
2023-03-07T05:05:15.020Z,1.21
2023-03-07T05:07:42.287Z,1.23
2023-03-07T05:10:09.615Z,1.25
2023-03-07T05:12:36.168Z,1.28
2023-03-07T05:15:02.808Z,1.29
2023-03-07T05:17:31.172Z,1.29
2023-03-07T05:19:57.594Z,1.31
2023-03-07T05:22:24.027Z,1.34
2023-03-07T05:24:50.549Z,1.37
2023-03-07T05:27:16.937Z,1.40
2023-03-07T05:29:43.441Z,1.41
2023-03-07T05:32:10.674Z,1.43
2023-03-07T05:34:37.668Z,1.46
2023-03-07T05:37:04.571Z,1.49
2023-03-07T05:39:31.314Z,1.51
2023-03-07T05:41:57.746Z,1.53
2023-03-07T05:44:24.803Z,1.54
2023-03-07T05:46:51.431Z,1.55
2023-03-07T05:49:18.168Z,1.57
2023-03-07T05:51:44.784Z,1.59
2023-03-07T05:54:11.652Z,1.60
2023-03-07T05:56:38.654Z,1.62
2023-03-07T05:59:08.973Z,1.63
2023-03-07T06:01:35.836Z,1.66
2023-03-07T06:04:02.726Z,1.68
2023-03-07T06:06:30.460Z,1.71
2023-03-07T06:08:59.111Z,1.73
2023-03-07T06:11:26.515Z,1.79
2023-03-07T06:13:54.085Z,1.83
2023-03-07T06:16:23.633Z,1.87
2023-03-07T06:18:50.355Z,1.91
2023-03-07T06:21:17.916Z,1.95
2023-03-07T06:23:45.895Z,1.99
2023-03-07T06:26:13.044Z,2.01
2023-03-07T06:28:40.505Z,2.04
2023-03-07T06:31:18.519Z,2.08
2023-03-07T06:33:46.961Z,2.12
2023-03-07T06:36:16.053Z,2.17
2023-03-07T06:38:55.306Z,2.21
2023-03-07T06:41:21.748Z,2.25
2023-03-07T06:43:52.217Z,2.31
2023-03-07T06:46:21.026Z,2.34
2023-03-07T06:48:50.278Z,2.38
2023-03-07T06:51:17.200Z,2.42
2023-03-07T06:53:43.643Z,2.47
2023-03-07T06:56:10.041Z,2.53
2023-03-07T06:58:36.522Z,2.57
2023-03-07T07:01:03.454Z,2.64
2023-03-07T07:03:30.494Z,2.71
2023-03-07T07:05:57.019Z,2.76
2023-03-07T07:08:23.519Z,2.81
2023-03-07T07:10:49.900Z,2.86
2023-03-07T07:13:16.499Z,2.94
2023-03-07T07:15:43.417Z,3.03
2023-03-07T07:18:13.331Z,3.15
2023-03-07T07:20:39.981Z,3.26
2023-03-07T07:23:06.492Z,3.36
2023-03-07T07:25:33.004Z,3.42
2023-03-07T07:27:59.500Z,3.45
2023-03-07T07:30:29.120Z,3.48
2023-03-07T07:32:56.154Z,3.52
2023-03-07T07:35:22.990Z,3.55
2023-03-07T07:37:49.432Z,3.59
2023-03-07T07:40:15.818Z,3.63
2023-03-07T07:42:43.017Z,3.66
2023-03-07T07:45:54.375Z,3.69
2023-03-07T07:49:05.166Z,3.75
2023-03-07T07:51:33.288Z,3.79
2023-03-07T07:54:00.301Z,3.81
2023-03-07T07:56:27.385Z,3.86
2023-03-07T07:58:53.875Z,3.88
2023-03-07T08:01:22.849Z,3.93
2023-03-07T08:03:50.010Z,4.01
2023-03-07T08:06:21.926Z,4.09
2023-03-07T08:08:49.498Z,4.15
2023-03-07T08:11:17.566Z,4.20
2023-03-07T08:13:53.440Z,4.22
2023-03-07T08:16:26.059Z,4.25
2023-03-07T08:18:55.731Z,4.31
2023-03-07T08:21:24.485Z,4.39
2023-03-07T08:23:52.343Z,4.44
2023-03-07T08:26:19.136Z,4.50
2023-03-07T08:28:47.360Z,4.55
2023-03-07T08:31:19.794Z,4.64
2023-03-07T08:33:47.613Z,4.71
2023-03-07T08:36:14.152Z,4.80
2023-03-07T08:38:40.674Z,4.90
2023-03-07T08:41:08.161Z,4.99
2023-03-07T08:43:36.594Z,5.07
2023-03-07T08:46:04.410Z,5.08
2023-03-07T08:48:31.638Z,5.09
2023-03-07T08:51:04.137Z,5.10
2023-03-07T08:53:30.956Z,5.15
2023-03-07T08:55:57.438Z,5.14
2023-03-07T08:58:24.622Z,5.16
2023-03-07T09:00:51.975Z,5.15
2023-03-07T09:03:18.424Z,5.14
2023-03-07T09:05:44.997Z,5.12
2023-03-07T09:08:17.133Z,5.09
2023-03-07T09:10:43.524Z,5.06
2023-03-07T09:13:10.812Z,5.05
2023-03-07T09:15:41.632Z,5.06
2023-03-07T09:18:08.372Z,5.07
2023-03-07T09:20:37.005Z,5.11
2023-03-07T09:23:04.324Z,5.15
2023-03-07T09:25:30.905Z,5.19
2023-03-07T09:27:58.414Z,5.24
2023-03-07T09:30:27.943Z,5.29
2023-03-07T09:32:55.341Z,5.35
2023-03-07T09:35:22.408Z,5.37
2023-03-07T09:37:49.223Z,5.36
2023-03-07T09:40:20.341Z,5.35
2023-03-07T09:42:57.745Z,5.34
2023-03-07T09:45:55.254Z,5.35
2023-03-07T09:48:52.232Z,5.38
2023-03-07T09:51:44.228Z,5.43
2023-03-07T09:54:20.321Z,5.49
2023-03-07T09:56:49.761Z,5.56
2023-03-07T09:59:24.238Z,5.62
2023-03-07T10:02:14.217Z,5.68
2023-03-07T10:04:55.869Z,5.73
2023-03-07T10:07:25.485Z,5.78
2023-03-07T10:09:59.038Z,5.84
2023-03-07T10:12:49.108Z,5.91
2023-03-07T10:15:20.081Z,5.99
2023-03-07T10:17:47.113Z,6.01
2023-03-07T10:20:37.388Z,6.04
2023-03-07T10:23:22.812Z,6.07
2023-03-07T10:25:54.159Z,6.09
2023-03-07T10:28:21.382Z,6.11
2023-03-07T10:30:51.346Z,6.16
2023-03-07T10:33:19.505Z,6.19
2023-03-07T10:37:00.038Z,6.24
2023-03-07T10:39:40.988Z,6.33
2023-03-07T10:42:11.584Z,6.40
2023-03-07T10:44:38.988Z,6.47
2023-03-07T10:47:05.673Z,6.52
2023-03-07T10:49:37.407Z,6.59
2023-03-07T10:52:31.158Z,6.65
2023-03-07T10:55:32.415Z,6.73
2023-03-07T10:58:22.652Z,6.78
2023-03-07T11:01:07.618Z,6.78
2023-03-07T11:03:54.148Z,6.75
2023-03-07T11:06:40.198Z,6.76
2023-03-07T11:09:16.308Z,6.78
2023-03-07T11:11:52.244Z,6.80
2023-03-07T11:14:21.305Z,6.80
2023-03-07T11:17:01.161Z,6.80
2023-03-07T11:19:27.585Z,6.78
2023-03-07T11:21:55.753Z,6.78
2023-03-07T11:24:37.147Z,6.79
2023-03-07T11:27:04.364Z,6.82
2023-03-07T11:29:34.256Z,6.86
2023-03-07T11:32:13.944Z,6.91
2023-03-07T11:34:49.369Z,7.00
2023-03-07T11:37:26.750Z,7.08
2023-03-07T11:39:59.328Z,7.10
2023-03-07T11:42:41.470Z,7.13
2023-03-07T11:45:51.276Z,7.17
2023-03-07T11:48:51.237Z,7.18
2023-03-07T11:51:36.019Z,7.22
2023-03-07T11:54:12.019Z,7.27
2023-03-07T11:56:46.542Z,7.26
2023-03-07T11:59:48.756Z,7.28
2023-03-07T12:02:32.883Z,7.39
2023-03-07T12:05:02.309Z,7.55
2023-03-07T12:08:07.971Z,7.69
2023-03-07T12:10:46.086Z,7.82
2023-03-07T12:13:15.977Z,7.86
2023-03-07T12:16:05.966Z,7.86
2023-03-07T12:18:56.167Z,7.87
2023-03-07T12:21:49.635Z,7.86
2023-03-07T12:24:26.089Z,7.81
2023-03-07T12:27:02.065Z,7.79
2023-03-07T12:29:47.087Z,7.76
2023-03-07T12:32:21.218Z,7.75
2023-03-07T12:34:57.902Z,7.78
2023-03-07T12:37:29.942Z,7.77
2023-03-07T12:40:04.065Z,7.71
2023-03-07T12:42:36.694Z,7.62
2023-03-07T12:45:12.890Z,7.50
2023-03-07T12:47:57.364Z,7.39
2023-03-07T12:50:35.469Z,7.36
2023-03-07T12:53:10.893Z,7.37
2023-03-07T12:55:45.485Z,7.38
2023-03-07T12:58:38.086Z,7.32
2023-03-07T13:01:27.097Z,7.29
2023-03-07T13:04:03.088Z,7.27
2023-03-07T13:06:31.384Z,7.27
2023-03-07T13:09:00.951Z,7.26
2023-03-07T13:11:31.255Z,7.27
2023-03-07T13:13:58.991Z,7.28
2023-03-07T13:16:37.827Z,7.29
2023-03-07T13:19:36.560Z,7.28
2023-03-07T13:22:23.708Z,7.28
2023-03-07T13:24:54.582Z,7.30
2023-03-07T13:27:43.960Z,7.32
2023-03-07T13:30:19.903Z,7.32
2023-03-07T13:32:58.656Z,7.30
2023-03-07T13:35:30.858Z,7.25
2023-03-07T13:38:03.249Z,7.19
2023-03-07T13:40:37.350Z,7.11
2023-03-07T13:43:31.113Z,7.06
2023-03-07T13:46:01.703Z,7.03
2023-03-07T13:48:28.214Z,7.03
2023-03-07T13:50:54.794Z,7.02
2023-03-07T13:53:24.970Z,7.01
2023-03-07T13:56:15.144Z,7.01
2023-03-07T13:59:09.438Z,7.02
2023-03-07T14:01:38.861Z,7.05
2023-03-07T14:04:40.300Z,7.06
2023-03-07T14:07:32.000Z,7.05
2023-03-07T14:10:21.405Z,7.03
2023-03-07T14:13:14.827Z,6.99
2023-03-07T14:16:04.722Z,6.97
2023-03-07T14:18:44.032Z,6.94
2023-03-07T14:21:15.532Z,6.90
2023-03-07T14:23:58.086Z,6.86
2023-03-07T14:26:43.333Z,6.85
2023-03-07T14:29:18.273Z,6.82
2023-03-07T14:31:45.822Z,6.80
2023-03-07T14:34:21.513Z,6.76
2023-03-07T14:36:52.153Z,6.72
2023-03-07T14:39:21.216Z,6.70
2023-03-07T14:41:59.226Z,6.68
2023-03-07T14:44:31.417Z,6.63
2023-03-07T14:47:00.969Z,6.57
2023-03-07T14:49:35.101Z,6.55
2023-03-07T14:52:03.320Z,6.53
2023-03-07T14:54:32.870Z,6.54
2023-03-07T14:57:01.232Z,6.54
2023-03-07T14:59:29.232Z,6.54
2023-03-07T15:01:57.956Z,6.53
2023-03-07T15:04:28.568Z,6.52
2023-03-07T15:07:00.999Z,6.51
2023-03-07T15:09:28.490Z,6.48
2023-03-07T15:12:02.607Z,6.45
2023-03-07T15:14:43.995Z,6.41
2023-03-07T15:17:16.571Z,6.38
2023-03-07T15:19:58.331Z,6.33
2023-03-07T15:22:28.591Z,6.27
2023-03-07T15:24:56.285Z,6.21
2023-03-07T15:27:30.028Z,6.17
2023-03-07T15:29:58.325Z,6.11
2023-03-07T15:32:39.462Z,6.06
2023-03-07T15:35:10.272Z,6.00
2023-03-07T15:38:18.652Z,5.96
2023-03-07T15:40:46.028Z,5.87
2023-03-07T15:43:20.344Z,5.80
2023-03-07T15:46:02.229Z,5.72
2023-03-07T15:48:43.332Z,5.65
2023-03-07T15:51:16.404Z,5.56
2023-03-07T15:53:45.691Z,5.49
2023-03-07T15:56:21.150Z,5.43
2023-03-07T15:58:48.800Z,5.35
2023-03-07T16:01:22.988Z,5.28
2023-03-07T16:03:53.047Z,5.21
2023-03-07T16:06:37.604Z,5.13
2023-03-07T16:09:06.403Z,5.08
2023-03-07T16:11:33.612Z,5.02
2023-03-07T16:14:00.309Z,4.96
2023-03-07T16:16:28.883Z,4.91
2023-03-07T16:18:58.961Z,4.87
2023-03-07T16:21:26.040Z,4.84
2023-03-07T16:23:53.116Z,4.78
2023-03-07T16:26:22.653Z,4.73
2023-03-07T16:28:50.060Z,4.67
2023-03-07T16:31:17.841Z,4.61
2023-03-07T16:33:45.841Z,4.55
2023-03-07T16:36:13.777Z,4.50
2023-03-07T16:38:41.507Z,4.43
2023-03-07T16:41:16.665Z,4.38
2023-03-07T16:43:44.751Z,4.32
2023-03-07T16:46:15.793Z,4.28
2023-03-07T16:48:44.238Z,4.24
2023-03-07T16:51:17.313Z,4.23
2023-03-07T16:53:44.969Z,4.21
2023-03-07T16:56:32.981Z,4.18
2023-03-07T16:59:00.854Z,4.17
2023-03-07T17:01:28.978Z,4.16
2023-03-07T17:03:58.491Z,4.13
2023-03-07T17:06:37.233Z,4.13
2023-03-07T17:09:06.677Z,4.12
2023-03-07T17:11:34.859Z,4.11
2023-03-07T17:14:08.028Z,4.10
2023-03-07T17:16:39.422Z,4.10
2023-03-07T17:19:07.447Z,4.09
2023-03-07T17:21:33.880Z,4.08
2023-03-07T17:24:00.861Z,4.07
2023-03-07T17:26:34.452Z,4.05
2023-03-07T17:29:04.851Z,4.02
2023-03-07T17:31:31.319Z,4.01
2023-03-07T17:33:57.752Z,4.00
2023-03-07T17:36:24.758Z,3.99
2023-03-07T17:38:51.737Z,4.00
2023-03-07T17:41:18.220Z,4.01
2023-03-07T17:43:44.816Z,3.99
2023-03-07T17:46:14.308Z,3.99
2023-03-07T17:48:40.842Z,3.99
2023-03-07T17:51:09.332Z,4.00
2023-03-07T17:53:37.168Z,4.01
2023-03-07T17:56:08.840Z,4.02
2023-03-07T17:58:35.342Z,4.05
2023-03-07T18:01:01.706Z,4.07
2023-03-07T18:03:28.138Z,4.09
2023-03-07T18:05:55.322Z,4.10
2023-03-07T18:08:21.762Z,4.10
2023-03-07T18:10:48.267Z,4.12
2023-03-07T18:13:14.737Z,4.14
2023-03-07T18:15:45.257Z,4.15
2023-03-07T18:18:11.647Z,4.17
2023-03-07T18:20:39.087Z,4.17
2023-03-07T18:23:05.590Z,4.18
2023-03-07T18:25:32.128Z,4.21
2023-03-07T18:28:01.768Z,4.22
2023-03-07T18:30:28.700Z,4.23
2023-03-07T18:32:55.086Z,4.24
2023-03-07T18:35:22.926Z,4.25
2023-03-07T18:37:49.392Z,4.25
2023-03-07T18:40:18.864Z,4.25
2023-03-07T18:42:45.426Z,4.24
2023-03-07T18:45:12.145Z,4.22
2023-03-07T18:47:38.522Z,4.19
2023-03-07T18:50:05.990Z,4.18
2023-03-07T18:52:32.426Z,4.17
2023-03-07T18:54:58.913Z,4.17
2023-03-07T18:57:25.506Z,4.17
2023-03-07T18:59:52.024Z,4.16
2023-03-07T19:02:19.033Z,4.16
2023-03-07T19:04:45.735Z,4.16
2023-03-07T19:07:12.135Z,4.17
2023-03-07T19:09:38.736Z,4.16
2023-03-07T19:12:05.431Z,4.16
2023-03-07T19:14:32.692Z,4.15
2023-03-07T19:16:59.388Z,4.15
2023-03-07T19:19:26.029Z,4.14
2023-03-07T19:21:52.518Z,4.14
2023-03-07T19:24:18.928Z,4.14
2023-03-07T19:26:45.903Z,4.14
2023-03-07T19:29:13.427Z,4.14
2023-03-07T19:31:43.146Z,4.14
2023-03-07T19:34:09.993Z,4.15
2023-03-07T19:36:36.886Z,4.15
2023-03-07T19:39:04.355Z,4.17
2023-03-07T19:41:32.569Z,4.18
2023-03-07T19:44:00.255Z,4.18
2023-03-07T19:46:27.459Z,4.18
2023-03-07T19:48:53.953Z,4.17
2023-03-07T19:51:22.984Z,4.19
2023-03-07T19:53:50.281Z,4.21
2023-03-07T19:56:19.914Z,4.22
2023-03-07T19:58:47.163Z,4.23
2023-03-07T20:01:16.587Z,4.25
2023-03-07T20:03:43.290Z,4.26
2023-03-07T20:06:14.668Z,4.25
2023-03-07T20:08:41.239Z,4.25
2023-03-07T20:11:15.518Z,4.25
2023-03-07T20:13:45.040Z,4.24
2023-03-07T20:16:12.880Z,4.23
2023-03-07T20:18:39.843Z,4.23
2023-03-07T20:21:09.047Z,4.22
2023-03-07T20:23:35.752Z,4.21
2023-03-07T20:26:04.116Z,4.19
2023-03-07T20:28:31.476Z,4.17
2023-03-07T20:30:58.446Z,4.17
2023-03-07T20:33:24.995Z,4.18
2023-03-07T20:36:04.471Z,4.17
2023-03-07T20:38:33.002Z,4.17
2023-03-07T20:41:12.928Z,4.16
2023-03-07T20:43:40.351Z,4.17
2023-03-07T20:46:13.038Z,4.17
2023-03-07T20:48:40.760Z,4.19
2023-03-07T20:51:15.305Z,4.20
2023-03-07T20:53:42.595Z,4.22
2023-03-07T20:56:09.010Z,4.24
2023-03-07T20:58:35.525Z,4.25
2023-03-07T21:01:02.024Z,4.25
2023-03-07T21:03:28.705Z,4.27
2023-03-07T21:05:57.250Z,4.25
2023-03-07T21:08:25.295Z,4.25
2023-03-07T21:11:02.444Z,4.24
2023-03-07T21:13:29.832Z,4.25
2023-03-07T21:15:59.109Z,4.30
2023-03-07T21:18:26.925Z,4.32
2023-03-07T21:20:53.344Z,4.31
2023-03-07T21:23:19.754Z,4.32
2023-03-07T21:25:46.735Z,4.31
2023-03-07T21:28:13.220Z,4.30
2023-03-07T21:31:03.814Z,4.28
2023-03-07T21:33:31.585Z,4.29
2023-03-07T21:35:58.745Z,4.31
2023-03-07T21:38:25.459Z,4.31
2023-03-07T21:40:55.168Z,4.31
2023-03-07T21:43:22.237Z,4.30
2023-03-07T21:45:49.323Z,4.32
2023-03-07T21:48:18.837Z,4.34
2023-03-07T21:50:49.169Z,4.35
2023-03-07T21:53:15.774Z,4.36
2023-03-07T21:55:57.276Z,4.36
2023-03-07T21:58:24.518Z,4.37
2023-03-07T22:00:51.265Z,4.37
2023-03-07T22:03:18.438Z,4.35
2023-03-07T22:05:45.806Z,4.36
2023-03-07T22:08:12.903Z,4.38
2023-03-07T22:10:39.851Z,4.37
2023-03-07T22:13:07.000Z,4.38
2023-03-07T22:15:33.726Z,4.38
2023-03-07T22:18:00.306Z,4.40
2023-03-07T22:20:26.774Z,4.39
2023-03-07T22:22:53.247Z,4.40
2023-03-07T22:25:20.596Z,4.42
2023-03-07T22:27:47.061Z,4.42
2023-03-07T22:30:14.006Z,4.43
2023-03-07T22:32:44.221Z,4.42
2023-03-07T22:35:10.806Z,4.43
2023-03-07T22:37:37.873Z,4.42
2023-03-07T22:40:06.017Z,4.42
2023-03-07T22:42:33.026Z,4.42
2023-03-07T22:44:59.460Z,4.41
2023-03-07T22:47:26.108Z,4.41
2023-03-07T22:49:52.984Z,4.39
2023-03-07T22:52:19.867Z,4.38
2023-03-07T22:54:46.329Z,4.36
2023-03-07T22:57:12.862Z,4.34
2023-03-07T22:59:39.268Z,4.32
2023-03-07T23:02:05.730Z,4.30
2023-03-07T23:04:32.811Z,4.28
2023-03-07T23:06:59.315Z,4.27
2023-03-07T23:09:25.799Z,4.27
2023-03-07T23:11:52.202Z,4.28
2023-03-07T23:14:18.646Z,4.28
2023-03-07T23:16:45.183Z,4.26
2023-03-07T23:19:11.658Z,4.27
2023-03-07T23:21:40.339Z,4.28
2023-03-07T23:24:07.282Z,4.28
2023-03-07T23:26:36.595Z,4.30
2023-03-07T23:29:05.545Z,4.29
2023-03-07T23:31:40.593Z,4.28
2023-03-07T23:34:16.982Z,4.29
2023-03-07T23:36:44.185Z,4.30
2023-03-07T23:39:11.076Z,4.31
2023-03-07T23:41:37.552Z,4.31
2023-03-07T23:44:04.605Z,4.29
2023-03-07T23:46:31.569Z,4.29
2023-03-07T23:48:58.173Z,4.31
2023-03-07T23:51:25.034Z,4.32
2023-03-07T23:53:51.485Z,4.32
2023-03-07T23:56:17.990Z,4.31
2023-03-07T23:58:48.677Z,4.33
